Bloomfield, Iowa
Current Conditions -  °F | °C
As of 3:53 PM on Friday 24 Oct 2014 (Local Time) from KOTM Reporting Station
Overcast Overcast  
Wind Chill: 65°   Ceiling: 1300
Heat Index: 65°   Visibility: 9mi
Dew Point: 59°   Wind: 8mph
Humidity: 81%   Direction: 200°SSW
Pressure: 29.91"   Gusts: NA
Location:  40.75°N, 92.41°W
Report Text: KOTM 242053Z AUTO 20007KT 9SM OVC013 18/15 A2991 RMK AO2 SLP128 T01830150 56023
Loading
Personal Weather Stations






























Interactive Weather Map
Tropical Storm Tracking
New forecast layout! Learn more

10-Day Weather Forecast

Advertisements
Track Severe Weather on mobile